Time,TemperatureF,DewpointF,PressureIn,WindDirection,WindDirectionDegrees,WindSpeedMPH,WindSpeedGustMPH,Humidity,HourlyPrecipIn,Conditions,Clouds,dailyrainin,SoftwareType,DateUTC
2013-01-30 00:08:00,61.2,58.2,29.93,NNE,22,2.2,-999.0,90,-99.99,,,0.00,Acu-Link.com,2013-01-30 05:08:00,
2013-01-30 00:24:00,60.8,58.5,29.93,NNE,22,3.2,-999.0,92,-99.99,,,0.00,Acu-Link.com,2013-01-30 05:24:00,
2013-01-30 00:39:00,60.6,58.6,29.92,North,0,4.7,-999.0,93,-99.99,,,0.00,Acu-Link.com,2013-01-30 05:39:00,
2013-01-30 00:54:00,60.6,58.9,29.92,East,90,2.7,-999.0,94,-99.99,,,0.00,Acu-Link.com,2013-01-30 05:54:00,
2013-01-30 01:10:00,60.8,59.1,29.92,East,90,4.7,-999.0,94,-99.99,,,0.00,Acu-Link.com,2013-01-30 06:10:00,
2013-01-30 01:25:00,61.2,59.8,29.91,NNE,22,4.7,-999.0,95,-99.99,,,0.00,Acu-Link.com,2013-01-30 06:25:00,
2013-01-30 01:40:00,61.3,59.9,29.91,WNW,292,5.3,-999.0,95,-99.99,,,0.00,Acu-Link.com,2013-01-30 06:40:00,
2013-01-30 01:55:00,61.3,60.1,29.91,NE,45,3.2,-999.0,96,-99.99,,,0.00,Acu-Link.com,2013-01-30 06:55:00,
2013-01-30 02:11:00,61.7,60.8,29.90,North,0,2.7,-999.0,97,-99.99,,,0.00,Acu-Link.com,2013-01-30 07:11:00,
2013-01-30 02:26:00,61.9,61.0,29.89,ESE,112,5.3,-999.0,97,-99.99,,,0.00,Acu-Link.com,2013-01-30 07:26:00,
2013-01-30 02:41:00,62.2,61.3,29.89,NNE,22,3.2,-999.0,97,-99.99,,,0.00,Acu-Link.com,2013-01-30 07:41:00,
2013-01-30 02:57:00,62.6,61.7,29.88,NNE,22,6.3,-999.0,97,-99.99,,,0.00,Acu-Link.com,2013-01-30 07:57:00,
2013-01-30 03:12:00,62.6,61.7,29.88,NNE,22,5.3,-999.0,97,-99.99,,,0.00,Acu-Link.com,2013-01-30 08:12:00,
2013-01-30 03:27:00,63.0,62.1,29.87,NNW,337,5.8,-999.0,97,-99.99,,,0.00,Acu-Link.com,2013-01-30 08:27:00,
2013-01-30 03:43:00,63.5,62.6,29.87,NNE,22,8.3,-999.0,97,-99.99,,,0.00,Acu-Link.com,2013-01-30 08:43:00,
2013-01-30 03:58:00,64.0,62.8,29.86,ENE,67,8.9,-999.0,96,-99.99,,,0.00,Acu-Link.com,2013-01-30 08:58:00,
2013-01-30 04:15:00,64.0,62.8,29.86,WSW,247,3.7,-999.0,96,-99.99,,,0.00,Acu-Link.com,2013-01-30 09:15:00,
2013-01-30 04:30:00,64.2,62.7,29.86,North,0,1.7,-999.0,95,-99.99,,,0.00,Acu-Link.com,2013-01-30 09:30:00,
2013-01-30 04:45:00,64.4,62.9,29.85,NE,45,5.8,-999.0,95,-99.99,,,0.00,Acu-Link.com,2013-01-30 09:45:00,
2013-01-30 05:00:00,64.4,62.9,29.84,NNE,22,4.7,-999.0,95,-99.99,,,0.00,Acu-Link.com,2013-01-30 10:00:00,
2013-01-30 05:15:00,64.6,63.1,29.85,NNE,22,7.3,-999.0,95,-99.99,,,0.00,Acu-Link.com,2013-01-30 10:15:00,
2013-01-30 05:31:00,64.6,63.1,29.84,NNE,22,3.7,-999.0,95,-99.99,,,0.00,Acu-Link.com,2013-01-30 10:31:00,
2013-01-30 05:46:00,64.6,63.1,29.83,NNE,22,7.8,-999.0,95,-99.99,,,0.00,Acu-Link.com,2013-01-30 10:46:00,
2013-01-30 06:01:00,64.4,62.9,29.83,North,0,4.2,-999.0,95,-99.99,,,0.00,Acu-Link.com,2013-01-30 11:01:00,
2013-01-30 06:16:00,64.4,63.2,29.82,NNE,22,5.3,-999.0,96,-99.99,,,0.00,Acu-Link.com,2013-01-30 11:16:00,
2013-01-30 06:32:00,64.2,63.3,29.81,ESE,112,5.8,-999.0,97,-99.99,,,0.00,Acu-Link.com,2013-01-30 11:32:00,
2013-01-30 06:47:00,64.2,63.3,29.80,ENE,67,4.2,-999.0,97,-99.99,,,0.00,Acu-Link.com,2013-01-30 11:47:00,
2013-01-30 07:02:00,64.4,63.2,29.80,North,0,2.7,-999.0,96,-99.99,,,0.00,Acu-Link.com,2013-01-30 12:02:00,
2013-01-30 07:17:00,64.8,63.6,29.80,NNE,22,6.3,-999.0,96,-99.99,,,0.00,Acu-Link.com,2013-01-30 12:17:00,
2013-01-30 07:32:00,64.9,63.4,29.80,NE,45,6.3,-999.0,95,-99.99,,,0.00,Acu-Link.com,2013-01-30 12:32:00,
2013-01-30 07:47:00,64.9,63.4,29.80,WNW,292,4.2,-999.0,95,-99.99,,,0.00,Acu-Link.com,2013-01-30 12:47:00,
2013-01-30 08:03:00,65.3,63.8,29.79,NNE,22,5.3,-999.0,95,-99.99,,,0.00,Acu-Link.com,2013-01-30 13:03:00,
2013-01-30 08:18:00,65.5,63.7,29.80,East,90,7.3,-999.0,94,-99.99,,,0.00,Acu-Link.com,2013-01-30 13:18:00,
2013-01-30 08:33:00,65.7,63.6,29.79,North,0,4.2,-999.0,93,-99.99,,,0.00,Acu-Link.com,2013-01-30 13:33:00,
2013-01-30 08:48:00,66.6,63.9,29.79,SSW,202,9.4,-999.0,91,-99.99,,,0.00,Acu-Link.com,2013-01-30 13:48:00,
2013-01-30 09:03:00,66.7,63.7,29.77,NNE,22,6.3,-999.0,90,-99.99,,,0.00,Acu-Link.com,2013-01-30 14:03:00,
2013-01-30 09:19:00,66.9,63.5,29.77,NNE,22,8.9,-999.0,89,-99.99,,,0.00,Acu-Link.com,2013-01-30 14:19:00,
2013-01-30 09:34:00,67.5,64.1,29.76,NNE,22,10.9,-999.0,89,-99.99,,,0.00,Acu-Link.com,2013-01-30 14:34:00,
2013-01-30 09:49:00,67.8,64.1,29.75,NE,45,14.0,-999.0,88,-99.99,,,0.00,Acu-Link.com,2013-01-30 14:49:00,
2013-01-30 10:05:00,67.8,64.1,29.76,NE,45,5.3,-999.0,88,-99.99,,,0.00,Acu-Link.com,2013-01-30 15:05:00,
2013-01-30 10:20:00,67.8,64.1,29.76,NE,45,4.2,-999.0,88,-99.99,,,0.00,Acu-Link.com,2013-01-30 15:20:00,
2013-01-30 10:36:00,68.0,64.3,29.76,West,270,5.3,-999.0,88,-99.99,,,0.00,Acu-Link.com,2013-01-30 15:36:00,
2013-01-30 10:51:00,68.4,64.4,29.75,NNE,22,13.5,-999.0,87,-99.99,,,0.00,Acu-Link.com,2013-01-30 15:51:00,
2013-01-30 11:06:00,68.7,64.3,29.75,NNW,337,7.8,-999.0,86,-99.99,,,0.00,Acu-Link.com,2013-01-30 16:06:00,
2013-01-30 11:21:00,68.7,64.3,29.74,ENE,67,8.3,-999.0,86,-99.99,,,0.00,Acu-Link.com,2013-01-30 16:21:00,
2013-01-30 11:36:00,68.7,64.3,29.73,NE,45,6.8,-999.0,86,-99.99,,,0.00,Acu-Link.com,2013-01-30 16:36:00,
2013-01-30 11:52:00,67.6,65.2,29.71,NNE,22,6.3,-999.0,92,-99.99,,,0.00,Acu-Link.com,2013-01-30 16:52:00,
2013-01-30 12:07:00,67.3,65.2,29.70,ENE,67,9.4,-999.0,93,-99.99,,,0.00,Acu-Link.com,2013-01-30 17:07:00,
2013-01-30 12:23:00,67.5,65.1,29.68,NNE,22,11.4,-999.0,92,-99.99,,,0.00,Acu-Link.com,2013-01-30 17:23:00,
2013-01-30 12:38:00,68.0,65.0,29.67,NE,45,12.5,-999.0,90,-99.99,,,0.00,Acu-Link.com,2013-01-30 17:38:00,
2013-01-30 12:53:00,67.8,65.1,29.67,NE,45,3.7,-999.0,91,-99.99,,,0.00,Acu-Link.com,2013-01-30 17:53:00,
2013-01-30 13:09:00,68.5,65.4,29.66,NE,45,10.4,-999.0,90,-99.99,,,0.00,Acu-Link.com,2013-01-30 18:09:00,
2013-01-30 13:24:00,69.3,65.9,29.64,NE,45,7.3,-999.0,89,-99.99,,,0.00,Acu-Link.com,2013-01-30 18:24:00,
2013-01-30 13:39:00,69.1,65.4,29.63,NNE,22,10.9,-999.0,88,-99.99,,,0.00,Acu-Link.com,2013-01-30 18:39:00,
2013-01-30 13:54:00,68.7,65.3,29.63,ESE,112,4.7,-999.0,89,-99.99,,,0.00,Acu-Link.com,2013-01-30 18:54:00,
2013-01-30 14:09:00,69.4,65.4,29.61,NNE,22,6.8,-999.0,87,-99.99,,,0.00,Acu-Link.com,2013-01-30 19:09:00,
2013-01-30 14:25:00,70.0,65.6,29.60,NE,45,11.9,-999.0,86,-99.99,,,0.00,Acu-Link.com,2013-01-30 19:25:00,
2013-01-30 14:40:00,70.2,65.5,29.58,East,90,7.3,-999.0,85,-99.99,,,0.00,Acu-Link.com,2013-01-30 19:40:00,
2013-01-30 14:55:00,70.5,65.4,29.57,ESE,112,8.9,-999.0,84,-99.99,,,0.00,Acu-Link.com,2013-01-30 19:55:00,
2013-01-30 15:11:00,71.2,65.4,29.56,South,180,8.3,-999.0,82,-99.99,,,0.00,Acu-Link.com,2013-01-30 20:11:00,
2013-01-30 15:26:00,71.2,65.4,29.55,ENE,67,5.3,-999.0,82,-99.99,,,0.00,Acu-Link.com,2013-01-30 20:26:00,
2013-01-30 15:41:00,71.4,65.3,29.55,ESE,112,12.5,-999.0,81,-99.99,,,0.00,Acu-Link.com,2013-01-30 20:41:00,
2013-01-30 15:57:00,71.8,64.9,29.53,SE,135,11.9,-999.0,79,-99.99,,,0.00,Acu-Link.com,2013-01-30 20:57:00,
2013-01-30 16:12:00,72.0,64.8,29.52,NW,315,8.9,-999.0,78,-99.99,,,0.00,Acu-Link.com,2013-01-30 21:12:00,
2013-01-30 16:27:00,71.4,64.5,29.52,ESE,112,9.9,-999.0,79,-99.99,,,0.00,Acu-Link.com,2013-01-30 21:27:00,
2013-01-30 16:42:00,71.4,64.2,29.51,SE,135,8.3,-999.0,78,-99.99,,,0.00,Acu-Link.com,2013-01-30 21:42:00,
2013-01-30 16:57:00,71.2,64.0,29.51,SSE,157,11.9,-999.0,78,-99.99,,,0.00,Acu-Link.com,2013-01-30 21:57:00,
2013-01-30 17:13:00,71.2,63.6,29.49,ESE,112,12.5,-999.0,77,-99.99,,,0.00,Acu-Link.com,2013-01-30 22:13:00,
2013-01-30 17:28:00,70.7,63.5,29.50,SSE,157,9.9,-999.0,78,-99.99,,,0.00,Acu-Link.com,2013-01-30 22:28:00,
2013-01-30 17:43:00,70.3,63.1,29.50,SSE,157,6.3,-999.0,78,-99.99,,,0.00,Acu-Link.com,2013-01-30 22:43:00,
2013-01-30 17:58:00,70.3,63.1,29.49,SSW,202,11.9,-999.0,78,-99.99,,,0.00,Acu-Link.com,2013-01-30 22:58:00,
2013-01-30 18:13:00,70.0,62.8,29.47,East,90,7.8,-999.0,78,-99.99,,,0.00,Acu-Link.com,2013-01-30 23:13:00,
2013-01-30 18:29:00,69.8,63.0,29.46,ESE,112,5.8,-999.0,79,-99.99,,,0.00,Acu-Link.com,2013-01-30 23:29:00,
2013-01-30 18:44:00,70.0,62.8,29.45,ESE,112,8.9,-999.0,78,-99.99,,,0.00,Acu-Link.com,2013-01-30 23:44:00,
2013-01-30 18:59:00,70.0,62.4,29.43,SSE,157,12.5,-999.0,77,-99.99,,,0.00,Acu-Link.com,2013-01-30 23:59:00,
2013-01-30 19:15:00,70.0,62.1,29.42,SE,135,6.8,-999.0,76,-99.99,,,0.00,Acu-Link.com,2013-01-31 00:15:00,
2013-01-30 19:30:00,69.8,61.9,29.41,ENE,67,4.7,-999.0,76,-99.99,,,0.00,Acu-Link.com,2013-01-31 00:30:00,
2013-01-30 19:45:00,69.8,61.5,29.40,SSE,157,14.5,-999.0,75,-99.99,,,0.00,Acu-Link.com,2013-01-31 00:45:00,
2013-01-30 20:01:00,70.0,61.7,29.39,South,180,7.8,-999.0,75,-99.99,,,0.00,Acu-Link.com,2013-01-31 01:01:00,
2013-01-30 20:16:00,69.8,61.9,29.38,SSE,157,10.9,-999.0,76,-99.99,,,0.00,Acu-Link.com,2013-01-31 01:16:00,
2013-01-30 20:32:00,69.8,61.9,29.38,SE,135,14.5,-999.0,76,-99.99,,,0.00,Acu-Link.com,2013-01-31 01:32:00,
2013-01-30 20:47:00,70.2,62.3,29.37,South,180,13.5,-999.0,76,-99.99,,,0.00,Acu-Link.com,2013-01-31 01:47:00,
2013-01-30 21:02:00,70.0,62.4,29.35,South,180,12.5,-999.0,77,-99.99,,,0.00,Acu-Link.com,2013-01-31 02:02:00,
2013-01-30 21:17:00,70.2,62.6,29.35,SSE,157,11.4,-999.0,77,-99.99,,,0.00,Acu-Link.com,2013-01-31 02:17:00,
2013-01-30 21:32:00,70.2,63.0,29.35,South,180,14.5,-999.0,78,-99.99,,,0.00,Acu-Link.com,2013-01-31 02:32:00,
2013-01-30 21:48:00,70.2,63.4,29.34,South,180,13.5,-999.0,79,-99.99,,,0.00,Acu-Link.com,2013-01-31 02:48:00,
2013-01-30 22:03:00,70.2,63.4,29.33,SSE,157,6.3,-999.0,79,-99.99,,,0.00,Acu-Link.com,2013-01-31 03:03:00,
2013-01-30 22:18:00,68.5,64.1,29.31,South,180,7.8,-999.0,86,-99.99,,,0.00,Acu-Link.com,2013-01-31 03:18:00,
2013-01-30 22:33:00,68.4,64.4,29.29,SSE,157,11.4,-999.0,87,-99.99,,,0.01,Acu-Link.com,2013-01-31 03:33:00,
2013-01-30 22:49:00,68.0,64.3,29.28,South,180,10.4,-999.0,88,-99.99,,,0.02,Acu-Link.com,2013-01-31 03:49:00,
2013-01-30 23:04:00,68.2,64.5,29.27,North,0,3.7,-999.0,88,-99.99,,,0.03,Acu-Link.com,2013-01-31 04:04:00,
2013-01-30 23:19:00,68.4,64.7,29.24,SSE,157,14.0,-999.0,88,-99.99,,,0.03,Acu-Link.com,2013-01-31 04:19:00,
2013-01-30 23:34:00,67.5,65.4,29.28,SSW,202,9.4,-999.0,93,-99.99,,,0.03,Acu-Link.com,2013-01-31 04:34:00,
2013-01-30 23:50:00,63.5,63.2,29.30,WNW,292,9.9,-999.0,99,-99.99,,,0.48,Acu-Link.com,2013-01-31 04:50:00,